This is the latest recevied weather packets stored in our database for station/object K3HM. If no packets are shown the sender has not sent any weather packets the latest 10 day(s).
| Time | Temp. | Humidity | Pressure | Rain* | Wind** | Luminosity | Snow |
|---|---|---|---|---|---|---|---|
| 1777514786 | 11.11° C | 99% | 1009.6 hPa | 0 mm | - | 0 W/m² | - |
| 1777514482 | 11.11° C | 99% | 1009.8 hPa | 0 mm | - | 0 W/m² | - |
| 1777514180 | 11.11° C | 99% | 1009.7 hPa | 0 mm | - | 0 W/m² | - |
| 1777513876 | 11.11° C | 99% | 1009.5 hPa | 0 mm | - | 0 W/m² | - |
| 1777513573 | 11.11° C | 99% | 1009.5 hPa | 0 mm | - | 0 W/m² | - |
| 1777513270 | 11.11° C | 99% | 1009.4 hPa | 0 mm | - | 0 W/m² | - |
| 1777512966 | 11.11° C | 99% | 1009.5 hPa | 0 mm | - | 0 W/m² | - |
| 1777512663 | 11.11° C | 99% | 1009.5 hPa | 0 mm | - | 0 W/m² | - |
| 1777512360 | 11.11° C | 99% | 1009.3 hPa | 0 mm | - | 0 W/m² | - |
| 1777512056 | 11.67° C | 99% | 1009.3 hPa | 0 mm | - | 0 W/m² | - |
| 1777511755 | 11.67° C | 99% | 1009.4 hPa | 0 mm | - | 0 W/m² | - |
| 1777511452 | 11.67° C | 99% | 1009.3 hPa | 0 mm | - | 0 W/m² | - |
| 1777511149 | 11.67° C | 99% | 1009.3 hPa | 0 mm | - | 0 W/m² | - |
| 1777510844 | 11.67° C | 99% | 1009.4 hPa | 0 mm | - | 0 W/m² | - |
| 1777510541 | 11.67° C | 99% | 1009.4 hPa | 0 mm | - | 0 W/m² | - |
| 1777510237 | 11.67° C | 99% | 1009.2 hPa | 0 mm | - | 0 W/m² | - |
| 1777509933 | 11.67° C | 99% | 1009.2 hPa | 0 mm | - | 0 W/m² | - |
| 1777509629 | 11.67° C | 99% | 1008.7 hPa | 1.78 mm | - | 0 W/m² | - |
| 1777509326 | 11.67° C | 99% | 1008.5 hPa | 1.78 mm | - | 0 W/m² | - |
| 1777509024 | 11.67° C | 99% | 1008.7 hPa | 1.27 mm | - | 0 W/m² | - |
| 1777508721 | 11.67° C | 99% | 1008.4 hPa | 3.05 mm | - | 0 W/m² | - |
| 1777508418 | 11.67° C | 99% | 1008.6 hPa | 1.78 mm | - | 0 W/m² | - |
| 1777508115 | 11.67° C | 99% | 1008.5 hPa | 0 mm | - | 0 W/m² | - |
| 1777507812 | 11.67° C | 99% | 1008.4 hPa | 0 mm | - | 1 W/m² | - |
| 1777507509 | 11.67° C | 99% | 1008.4 hPa | 0 mm | - | 2 W/m² | - |
* Rain latest hour (hover to see other rain measurements)
** Current wind speed in m/s (hover to see current wind gust speed)